createdAt,value
2022-12-06T00:01:29.699Z,92607.16
2022-12-06T00:04:33.533Z,92633.69
2022-12-06T00:07:37.246Z,92611.06
2022-12-06T00:10:41.035Z,92609.31
2022-12-06T00:13:44.955Z,92641.69
2022-12-06T00:16:49.539Z,92641.00
2022-12-06T00:19:53.718Z,92642.75
2022-12-06T00:22:57.817Z,92641.00
2022-12-06T00:26:01.913Z,92657.47
2022-12-06T00:29:07.391Z,92633.38
2022-12-06T00:32:14.783Z,92651.41
2022-12-06T00:35:22.473Z,92665.47
2022-12-06T00:38:26.245Z,92680.22
2022-12-06T00:41:30.447Z,92690.56
2022-12-06T00:44:34.676Z,92692.81
2022-12-06T00:47:37.638Z,92684.66
2022-12-06T00:50:40.647Z,92701.91
2022-12-06T00:53:44.833Z,92685.38
2022-12-06T00:56:47.919Z,92708.41
2022-12-06T00:59:51.528Z,92691.56
2022-12-06T01:02:55.142Z,92698.78
2022-12-06T01:05:58.498Z,92711.84
2022-12-06T01:09:04.441Z,92694.66
2022-12-06T01:12:08.638Z,92713.75
2022-12-06T01:15:13.117Z,92724.25
2022-12-06T01:18:16.509Z,92736.53
2022-12-06T01:21:21.194Z,92739.81
2022-12-06T01:24:24.546Z,92725.75
2022-12-06T01:27:28.218Z,92724.38
2022-12-06T01:30:32.299Z,92727.06
2022-12-06T01:33:36.183Z,92722.47
2022-12-06T01:36:39.982Z,92723.66
2022-12-06T01:39:44.434Z,92703.94
2022-12-06T01:42:48.460Z,92708.97
2022-12-06T01:45:51.393Z,92709.38
2022-12-06T01:49:02.043Z,92694.25
2022-12-06T01:52:12.104Z,92692.53
2022-12-06T01:55:17.528Z,92691.81
2022-12-06T01:58:26.321Z,92686.47
2022-12-06T02:01:31.469Z,92686.84
2022-12-06T02:04:34.958Z,92678.19
2022-12-06T02:07:39.047Z,92682.53
2022-12-06T02:10:42.064Z,92673.09
2022-12-06T02:13:45.923Z,92659.88
2022-12-06T02:17:09.856Z,92662.75
2022-12-06T02:20:31.994Z,92668.13
2022-12-06T02:24:04.674Z,92655.91
2022-12-06T02:27:35.836Z,92630.69
2022-12-06T02:30:51.412Z,92630.72
2022-12-06T02:34:02.953Z,92655.28
2022-12-06T02:37:14.988Z,92623.19
2022-12-06T02:40:27.098Z,92628.69
2022-12-06T02:43:49.483Z,92627.63
2022-12-06T02:46:55.718Z,92638.47
2022-12-06T02:50:00.780Z,92621.88
2022-12-06T02:53:08.431Z,92625.88
2022-12-06T02:56:13.844Z,92636.75
2022-12-06T02:59:17.612Z,92641.81
2022-12-06T03:02:23.694Z,92629.53
2022-12-06T03:05:36.514Z,92625.19
2022-12-06T03:09:13.334Z,92631.69
2022-12-06T03:12:27.999Z,92632.75
2022-12-06T03:15:43.231Z,92628.44
2022-12-06T03:18:58.854Z,92627.00
2022-12-06T03:22:07.529Z,92623.03
2022-12-06T03:25:11.871Z,92630.25
2022-12-06T03:28:17.597Z,92639.28
2022-12-06T03:31:23.348Z,92650.47
2022-12-06T03:34:33.843Z,92641.06
2022-12-06T03:37:39.537Z,92655.53
2022-12-06T03:40:46.202Z,92652.59
2022-12-06T03:43:49.360Z,92633.47
2022-12-06T03:46:59.299Z,92654.44
2022-12-06T03:50:11.392Z,92659.84
2022-12-06T03:53:16.932Z,92663.81
2022-12-06T03:56:21.347Z,92664.13
2022-12-06T03:59:24.282Z,92659.06
2022-12-06T04:02:27.353Z,92644.22
2022-12-06T04:05:31.002Z,92647.75
2022-12-06T04:08:35.029Z,92648.44
2022-12-06T04:11:38.942Z,92657.91
2022-12-06T04:14:42.612Z,92639.09
2022-12-06T04:18:05.370Z,92643.28
2022-12-06T04:21:27.370Z,92617.25
2022-12-06T04:24:30.411Z,92616.16
2022-12-06T04:27:52.423Z,92612.50
2022-12-06T04:31:20.087Z,92597.25
2022-12-06T04:34:43.396Z,92607.44
2022-12-06T04:38:04.975Z,92595.50
2022-12-06T04:41:07.968Z,92598.50
2022-12-06T04:44:11.185Z,92605.09
2022-12-06T04:47:14.302Z,92587.41
2022-12-06T04:50:17.614Z,92612.78
2022-12-06T04:53:21.309Z,92619.28
2022-12-06T04:56:24.649Z,92622.19
2022-12-06T04:59:29.310Z,92609.53
2022-12-06T05:02:33.052Z,92607.38
2022-12-06T05:05:36.054Z,92605.19
2022-12-06T05:08:39.547Z,92609.53
2022-12-06T05:11:42.547Z,92606.28
2022-12-06T05:14:45.890Z,92609.50
2022-12-06T05:17:49.550Z,92614.56
2022-12-06T05:20:52.901Z,92605.53
2022-12-06T05:23:56.567Z,92601.53
2022-12-06T05:27:00.533Z,92599.38
2022-12-06T05:30:05.855Z,92604.44
2022-12-06T05:33:08.786Z,92611.66
2022-12-06T05:36:14.324Z,92599.69
2022-12-06T05:39:18.084Z,92592.88
2022-12-06T05:42:22.399Z,92576.25
2022-12-06T05:45:26.234Z,92570.09
2022-12-06T05:48:30.231Z,92581.28
2022-12-06T05:51:33.500Z,92586.41
2022-12-06T05:54:37.534Z,92556.03
2022-12-06T05:57:46.867Z,92554.97
2022-12-06T06:00:51.383Z,92548.88
2022-12-06T06:03:55.299Z,92565.53
2022-12-06T06:06:58.866Z,92565.53
2022-12-06T06:10:02.388Z,92573.84
2022-12-06T06:13:06.269Z,92562.69
2022-12-06T06:16:09.868Z,92572.09
2022-12-06T06:19:13.494Z,92583.69
2022-12-06T06:22:16.448Z,92594.88
2022-12-06T06:25:19.525Z,92599.22
2022-12-06T06:28:23.287Z,92607.84
2022-12-06T06:31:26.235Z,92609.66
2022-12-06T06:34:29.290Z,92605.34
2022-12-06T06:37:33.553Z,92617.63
2022-12-06T06:40:38.377Z,92626.59
2022-12-06T06:43:41.508Z,92619.75
2022-12-06T06:46:44.737Z,92615.78
2022-12-06T06:49:47.741Z,92625.88
2022-12-06T06:52:50.789Z,92622.63
2022-12-06T06:55:54.508Z,92623.72
2022-12-06T06:58:58.205Z,92623.72
2022-12-06T07:02:01.191Z,92627.69
2022-12-06T07:05:04.628Z,92633.50
2022-12-06T07:08:08.270Z,92642.88
2022-12-06T07:11:12.764Z,92624.47
2022-12-06T07:14:16.804Z,92634.19
2022-12-06T07:17:20.701Z,92626.28
2022-12-06T07:20:23.621Z,92650.81
2022-12-06T07:23:26.934Z,92664.19
2022-12-06T07:26:29.917Z,92662.75
2022-12-06T07:29:33.233Z,92672.88
2022-12-06T07:32:37.525Z,92676.47
2022-12-06T07:36:10.855Z,92677.88
2022-12-06T07:39:03.751Z,92677.88
2022-12-06T07:42:25.838Z,92687.25
2022-12-06T07:45:29.452Z,92696.66
2022-12-06T07:48:32.913Z,92708.88
2022-12-06T07:51:36.615Z,92706.00
2022-12-06T07:54:42.038Z,92705.22
2022-12-06T07:57:46.249Z,92717.47
2022-12-06T08:00:49.725Z,92722.88
2022-12-06T08:03:54.167Z,92720.34
2022-12-06T08:06:58.166Z,92724.66
2022-12-06T08:10:01.453Z,92724.25
2022-12-06T08:13:05.275Z,92727.84
2022-12-06T08:16:12.023Z,92717.00
2022-12-06T08:19:15.100Z,92718.78
2022-12-06T08:22:18.699Z,92714.41
2022-12-06T08:25:22.481Z,92714.81
2022-12-06T08:28:25.965Z,92696.03
2022-12-06T08:31:30.945Z,92693.88
2022-12-06T08:34:34.797Z,92689.88
2022-12-06T08:37:37.644Z,92680.50
2022-12-06T08:40:40.586Z,92689.16
2022-12-06T08:43:43.906Z,92693.50
2022-12-06T08:46:47.630Z,92694.94
2022-12-06T08:49:52.003Z,92684.47
2022-12-06T08:52:55.884Z,92688.44
2022-12-06T08:56:02.893Z,92677.59
2022-12-06T08:59:07.619Z,92688.03
2022-12-06T09:02:13.178Z,92692.34
2022-12-06T09:05:16.976Z,92687.34
2022-12-06T09:08:21.105Z,92697.06
2022-12-06T09:11:26.086Z,92702.44
2022-12-06T09:14:30.149Z,92715.03
2022-12-06T09:17:33.760Z,92701.00
2022-12-06T09:20:41.452Z,92702.06
2022-12-06T09:23:45.494Z,92704.22
2022-12-06T09:26:49.735Z,92699.53
2022-12-06T09:29:53.600Z,92701.72
2022-12-06T09:32:57.770Z,92703.13
2022-12-06T09:36:05.464Z,92702.78
2022-12-06T09:39:15.406Z,92719.38
2022-12-06T09:42:37.249Z,92726.91
2022-12-06T09:46:13.334Z,92738.06
2022-12-06T09:49:28.903Z,92742.00
2022-12-06T09:53:02.747Z,92750.63
2022-12-06T09:56:37.107Z,92752.78
2022-12-06T09:59:46.743Z,92748.44
2022-12-06T10:03:37.067Z,92753.81
2022-12-06T10:07:01.837Z,92751.28
2022-12-06T10:10:23.629Z,92754.53
2022-12-06T10:14:06.463Z,92758.19
2022-12-06T10:17:52.303Z,92784.03
2022-12-06T10:21:32.885Z,92798.72
2022-12-06T10:24:44.606Z,92817.06
2022-12-06T10:28:08.227Z,92814.88
2022-12-06T10:31:21.436Z,92822.41
2022-12-06T10:35:00.078Z,92829.56
2022-12-06T10:38:07.248Z,92863.03
2022-12-06T10:41:23.518Z,92853.28
2022-12-06T10:44:47.599Z,92845.69
2022-12-06T10:47:53.463Z,92844.25
2022-12-06T10:51:06.186Z,92847.06
2022-12-06T10:54:19.632Z,92847.38
2022-12-06T10:57:31.921Z,92862.84
2022-12-06T11:00:59.026Z,92857.09
2022-12-06T11:04:14.981Z,92882.63
2022-12-06T11:07:24.362Z,92893.75
2022-12-06T11:10:31.968Z,92901.66
2022-12-06T11:13:40.846Z,92894.09
2022-12-06T11:17:00.988Z,92882.19
2022-12-06T11:20:08.829Z,92886.84
2022-12-06T11:23:26.531Z,92897.16
2022-12-06T11:26:41.530Z,92898.97
2022-12-06T11:29:48.526Z,92898.97
2022-12-06T11:32:53.796Z,92895.03
2022-12-06T11:35:57.419Z,92896.44
2022-12-06T11:39:01.782Z,92903.63
2022-12-06T11:42:05.721Z,92902.84
2022-12-06T11:45:20.626Z,92907.16
2022-12-06T11:48:29.334Z,92914.38
2022-12-06T11:51:32.318Z,92924.41
2022-12-06T11:54:41.706Z,92926.19
2022-12-06T11:58:03.751Z,92929.78
2022-12-06T12:01:14.933Z,92941.66
2022-12-06T12:04:30.664Z,92956.84
2022-12-06T12:07:36.933Z,92971.81
2022-12-06T12:10:44.086Z,92987.66
2022-12-06T12:14:11.832Z,92984.03
2022-12-06T12:17:23.055Z,92992.41
2022-12-06T12:20:33.631Z,93005.84
2022-12-06T12:23:54.914Z,93001.72
2022-12-06T12:26:57.833Z,93012.97
2022-12-06T12:30:19.389Z,93014.47
2022-12-06T12:33:25.724Z,93027.16
2022-12-06T12:36:30.774Z,93025.06
2022-12-06T12:39:38.818Z,93036.00
2022-12-06T12:42:42.317Z,93028.44
2022-12-06T12:46:12.817Z,93028.31
2022-12-06T12:49:32.120Z,93028.94
2022-12-06T12:52:40.758Z,93026.91
2022-12-06T12:55:47.613Z,93030.78
2022-12-06T12:58:55.063Z,93035.66
2022-12-06T13:02:22.681Z,93035.09
2022-12-06T13:05:33.984Z,93034.19
2022-12-06T13:08:39.663Z,93029.28
2022-12-06T13:11:47.488Z,93037.25
2022-12-06T13:14:56.763Z,93042.91
2022-12-06T13:18:22.155Z,93046.19
2022-12-06T13:21:43.886Z,93042.84
2022-12-06T13:24:58.340Z,93038.97
2022-12-06T13:28:05.922Z,93051.31
2022-12-06T13:31:19.210Z,93048.34
2022-12-06T13:34:49.728Z,93042.28
2022-12-06T13:38:02.379Z,93048.53
2022-12-06T13:41:55.080Z,93050.47
2022-12-06T13:45:01.472Z,93054.72
2022-12-06T13:48:25.272Z,93051.00
2022-12-06T13:51:32.495Z,93051.84
2022-12-06T13:54:36.255Z,93044.91
2022-12-06T13:57:40.086Z,93043.28
2022-12-06T14:00:43.653Z,93032.75
2022-12-06T14:03:56.561Z,93046.91
2022-12-06T14:07:05.271Z,93043.28
2022-12-06T14:10:14.501Z,93055.72
2022-12-06T14:13:22.659Z,93049.38
2022-12-06T14:16:26.345Z,93053.03
2022-12-06T14:19:29.645Z,93056.31
2022-12-06T14:22:36.962Z,93064.34
2022-12-06T14:25:39.888Z,93076.72
2022-12-06T14:28:44.862Z,93056.88
2022-12-06T14:31:52.078Z,93070.66
2022-12-06T14:35:03.461Z,93073.78
2022-12-06T14:38:27.256Z,93089.94
2022-12-06T14:41:57.960Z,93083.91
2022-12-06T14:45:02.619Z,93075.97
2022-12-06T14:48:07.753Z,93094.66
2022-12-06T14:51:23.407Z,93100.38
2022-12-06T14:54:43.966Z,93105.34
2022-12-06T14:57:50.194Z,93098.78
2022-12-06T15:01:12.645Z,93109.09
2022-12-06T15:04:29.696Z,93103.94
2022-12-06T15:07:43.589Z,93123.84
2022-12-06T15:11:41.041Z,93118.75
2022-12-06T15:14:49.104Z,93120.06
2022-12-06T15:17:52.777Z,93140.19
2022-12-06T15:20:56.188Z,93139.94
2022-12-06T15:23:59.489Z,93145.63
2022-12-06T15:27:03.110Z,93139.94
2022-12-06T15:30:08.134Z,93151.47
2022-12-06T15:33:23.206Z,93150.00
2022-12-06T15:36:35.950Z,93155.09
2022-12-06T15:39:40.389Z,93167.34
2022-12-06T15:42:44.442Z,93159.34
2022-12-06T15:45:48.252Z,93154.16
2022-12-06T15:48:53.544Z,93154.00
2022-12-06T15:51:57.211Z,93178.44
2022-12-06T15:55:01.253Z,93174.00
2022-12-06T15:58:04.296Z,93169.88
2022-12-06T16:01:17.683Z,93186.03
2022-12-06T16:04:23.170Z,93178.00
2022-12-06T16:07:26.203Z,93177.59
2022-12-06T16:10:48.652Z,93169.97
2022-12-06T16:13:53.054Z,93165.75
2022-12-06T16:16:56.732Z,93163.41
2022-12-06T16:20:18.135Z,93167.72
2022-12-06T16:24:12.554Z,93157.06
2022-12-06T16:27:05.832Z,93159.50
2022-12-06T16:30:10.428Z,93170.97
2022-12-06T16:33:20.135Z,93179.56
2022-12-06T16:36:31.304Z,93165.19
2022-12-06T16:39:36.386Z,93182.72
2022-12-06T16:42:40.179Z,93193.84
2022-12-06T16:45:46.865Z,93203.00
2022-12-06T16:49:10.682Z,93199.34
2022-12-06T16:52:22.052Z,93207.16
2022-12-06T16:55:25.671Z,93216.31
2022-12-06T16:58:29.698Z,93215.16
2022-12-06T17:01:38.723Z,93225.53
2022-12-06T17:04:43.756Z,93225.66
2022-12-06T17:07:47.775Z,93228.44
2022-12-06T17:11:11.052Z,93237.94
2022-12-06T17:14:15.621Z,93224.00
2022-12-06T17:17:22.386Z,93227.91
2022-12-06T17:20:25.257Z,93224.59
2022-12-06T17:23:29.169Z,93223.69
2022-12-06T17:26:33.551Z,93237.53
2022-12-06T17:29:38.281Z,93233.66
2022-12-06T17:32:41.306Z,93233.91
2022-12-06T17:35:44.676Z,93243.97
2022-12-06T17:38:47.822Z,93242.41
2022-12-06T17:42:09.286Z,93243.19
2022-12-06T17:45:13.317Z,93252.19
2022-12-06T17:48:17.559Z,93253.25
2022-12-06T17:51:21.148Z,93264.38
2022-12-06T17:54:24.506Z,93257.22
2022-12-06T17:57:27.431Z,93280.19
2022-12-06T18:00:30.223Z,93263.31
2022-12-06T18:03:33.526Z,93264.44
2022-12-06T18:06:39.372Z,93268.72
2022-12-06T18:09:43.190Z,93269.00
2022-12-06T18:12:46.810Z,93282.09
2022-12-06T18:15:49.728Z,93285.59
2022-12-06T18:18:56.728Z,93272.28
2022-12-06T18:22:00.372Z,93281.75
2022-12-06T18:25:04.056Z,93297.41
2022-12-06T18:28:07.583Z,93295.50
2022-12-06T18:31:12.842Z,93301.16
2022-12-06T18:34:17.152Z,93302.16
2022-12-06T18:37:20.732Z,93307.22
2022-12-06T18:40:24.137Z,93314.88
2022-12-06T18:43:27.765Z,93322.22
2022-12-06T18:46:32.525Z,93306.50
2022-12-06T18:49:35.910Z,93308.81
2022-12-06T18:52:39.262Z,93315.81
2022-12-06T18:55:43.240Z,93328.59
2022-12-06T18:58:46.909Z,93318.22
2022-12-06T19:01:49.755Z,93313.31
2022-12-06T19:04:53.071Z,93320.72
2022-12-06T19:07:55.924Z,93330.38
2022-12-06T19:11:03.441Z,93324.13
2022-12-06T19:14:06.877Z,93338.47
2022-12-06T19:17:13.015Z,93329.94
2022-12-06T19:20:15.955Z,93336.13
2022-12-06T19:23:19.595Z,93339.25
2022-12-06T19:26:24.489Z,93339.97
2022-12-06T19:29:28.607Z,93343.81
2022-12-06T19:32:32.110Z,93333.69
2022-12-06T19:35:35.674Z,93337.94
2022-12-06T19:38:39.390Z,93336.56
2022-12-06T19:42:01.750Z,93337.31
2022-12-06T19:45:06.422Z,93340.97
2022-12-06T19:48:10.192Z,93349.22
2022-12-06T19:51:14.317Z,93335.28
2022-12-06T19:54:24.478Z,93341.16
2022-12-06T19:57:28.270Z,93337.75
2022-12-06T20:00:31.776Z,93338.06
2022-12-06T20:03:36.034Z,93345.16
2022-12-06T20:06:40.140Z,93334.97
2022-12-06T20:09:43.049Z,93339.75
2022-12-06T20:12:47.367Z,93338.69
2022-12-06T20:15:50.390Z,93330.03
2022-12-06T20:18:53.766Z,93323.31
2022-12-06T20:21:57.588Z,93345.47
2022-12-06T20:25:01.324Z,93330.63
2022-12-06T20:28:07.899Z,93341.91
2022-12-06T20:31:18.945Z,93340.03
2022-12-06T20:34:22.242Z,93329.19
2022-12-06T20:37:25.445Z,93324.34
2022-12-06T20:40:31.409Z,93347.78
2022-12-06T20:43:35.708Z,93346.34
2022-12-06T20:46:38.629Z,93338.75
2022-12-06T20:49:41.869Z,93360.44
2022-12-06T20:52:45.406Z,93364.94
2022-12-06T20:55:48.388Z,93365.38
2022-12-06T20:58:55.400Z,93374.56
2022-12-06T21:01:58.567Z,93375.19
2022-12-06T21:05:01.838Z,93374.75
2022-12-06T21:08:05.252Z,93383.03
2022-12-06T21:11:25.505Z,93388.16
2022-12-06T21:14:29.221Z,93385.75
2022-12-06T21:17:34.065Z,93412.94
2022-12-06T21:20:41.266Z,93403.31
2022-12-06T21:23:45.062Z,93416.16
2022-12-06T21:26:49.601Z,93399.97
2022-12-06T21:29:53.202Z,93426.44
2022-12-06T21:32:57.592Z,93423.22
2022-12-06T21:36:06.312Z,93424.44
2022-12-06T21:39:15.029Z,93437.09
2022-12-06T21:42:21.430Z,93429.69
2022-12-06T21:45:25.320Z,93437.88
2022-12-06T21:48:29.296Z,93443.47
2022-12-06T21:51:33.161Z,93447.31
2022-12-06T21:54:36.102Z,93457.03
2022-12-06T21:57:39.083Z,93461.88
2022-12-06T22:00:41.995Z,93454.84
2022-12-06T22:03:50.212Z,93460.38
2022-12-06T22:06:53.585Z,93460.38
2022-12-06T22:09:57.317Z,93466.50
2022-12-06T22:13:00.344Z,93463.34
2022-12-06T22:16:05.720Z,93470.56
2022-12-06T22:19:09.459Z,93486.25
2022-12-06T22:22:12.940Z,93485.78
2022-12-06T22:25:19.429Z,93489.56
2022-12-06T22:28:22.717Z,93493.41
2022-12-06T22:31:30.505Z,93497.63
2022-12-06T22:34:33.812Z,93497.53
2022-12-06T22:37:37.097Z,93502.47
2022-12-06T22:40:41.196Z,93497.44
2022-12-06T22:43:45.513Z,93505.00
2022-12-06T22:46:48.981Z,93504.19
2022-12-06T22:49:52.206Z,93504.34
2022-12-06T22:52:56.251Z,93502.88
2022-12-06T22:56:03.266Z,93509.50
2022-12-06T22:59:06.913Z,93508.16
2022-12-06T23:02:10.642Z,93517.81
2022-12-06T23:05:14.800Z,93520.63
2022-12-06T23:08:18.485Z,93519.38
2022-12-06T23:11:33.277Z,93518.13
2022-12-06T23:14:37.061Z,93527.03
2022-12-06T23:17:40.392Z,93522.63
2022-12-06T23:20:43.336Z,93536.38
2022-12-06T23:23:50.727Z,93543.78
2022-12-06T23:26:57.981Z,93533.13
2022-12-06T23:30:02.723Z,93535.63
2022-12-06T23:33:06.773Z,93544.84
2022-12-06T23:36:13.718Z,93543.78
2022-12-06T23:39:18.171Z,93553.66
2022-12-06T23:42:21.881Z,93552.47
2022-12-06T23:45:25.535Z,93557.19
2022-12-06T23:48:31.113Z,93558.03
2022-12-06T23:51:38.809Z,93558.13
2022-12-06T23:54:43.102Z,93560.66
2022-12-06T23:57:46.095Z,93563.38
